Time;durP1;ratioP1;P1;durP2;ratioP2;P2;SDS_P1;SDS_P2;PMS_P1;PMS_P2;Temp;Humidity;BMP_temperature;BMP_pressure;BME280_temperature;BME280_humidity;BME280_pressure;Samples;Min_cycle;Max_cycle;Signal;HPM_P1;HPM_P2
2022/01/19 00:00:44;;;;;;;37.85;34.65;;;10.50;99.90;;;;;;5027482;28;20108;-76
2022/01/19 00:03:10;;;;;;;37.60;34.65;;;10.60;99.90;;;;;;5010870;28;20034;-76
2022/01/19 00:05:37;;;;;;;37.92;34.80;;;10.60;99.90;;;;;;5027286;28;20037;-76
2022/01/19 00:08:03;;;;;;;36.20;33.33;;;10.60;99.90;;;;;;5028424;28;20053;-76
2022/01/19 00:10:28;;;;;;;39.28;36.05;;;10.60;99.90;;;;;;5028523;28;20083;-76
2022/01/19 00:12:55;;;;;;;37.90;34.65;;;10.60;99.90;;;;;;5027202;28;20057;-76
2022/01/19 00:15:22;;;;;;;37.67;34.90;;;10.60;99.90;;;;;;5028739;28;20061;-76
2022/01/19 00:17:49;;;;;;;39.28;36.47;;;10.60;99.90;;;;;;5027085;28;20031;-76
2022/01/19 00:20:15;;;;;;;38.38;35.25;;;10.50;99.90;;;;;;5027107;28;20049;-76
2022/01/19 00:22:40;;;;;;;36.85;33.88;;;10.40;99.90;;;;;;5010873;28;20061;-76
2022/01/19 00:25:07;;;;;;;37.67;35.03;;;10.40;99.90;;;;;;5010826;28;20407;-76
2022/01/19 00:27:34;;;;;;;37.05;34.28;;;10.40;99.90;;;;;;5027040;28;20113;-76
2022/01/19 00:29:59;;;;;;;38.15;34.65;;;10.40;99.90;;;;;;5026980;28;20041;-76
2022/01/19 00:32:26;;;;;;;38.75;35.50;;;10.40;99.90;;;;;;5028474;28;20431;-76
2022/01/19 00:34:52;;;;;;;36.85;33.95;;;10.40;99.90;;;;;;5026704;28;20129;-76
2022/01/19 00:37:18;;;;;;;36.90;34.03;;;10.40;99.90;;;;;;5026935;28;20104;-76
2022/01/19 00:39:44;;;;;;;39.28;36.05;;;10.30;99.90;;;;;;5028214;28;20041;-76
2022/01/19 00:42:09;;;;;;;38.67;35.20;;;10.30;99.90;;;;;;5027988;28;20499;-76
2022/01/19 00:44:35;;;;;;;39.47;35.55;;;10.30;99.90;;;;;;5026569;28;20049;-76
2022/01/19 00:47:01;;;;;;;36.70;33.78;;;10.30;99.90;;;;;;5026564;28;20075;-76
2022/01/19 00:49:27;;;;;;;37.00;34.05;;;10.30;99.90;;;;;;5026581;28;20027;-76
2022/01/19 00:51:52;;;;;;;36.35;33.55;;;10.30;99.90;;;;;;5027887;28;20091;-76
2022/01/19 00:54:18;;;;;;;37.10;33.92;;;10.30;99.90;;;;;;5026582;28;20100;-76
2022/01/19 00:56:44;;;;;;;38.00;34.72;;;10.30;99.90;;;;;;5027654;28;20021;-76
2022/01/19 00:59:09;;;;;;;36.20;33.75;;;10.20;99.90;;;;;;5026498;28;20112;-76
2022/01/19 01:01:35;;;;;;;36.08;33.17;;;10.30;99.90;;;;;;5026379;28;20061;-76
2022/01/19 01:04:01;;;;;;;35.90;33.38;;;10.30;99.90;;;;;;5027653;28;20057;-76
2022/01/19 01:06:27;;;;;;;37.22;33.83;;;10.30;99.90;;;;;;5026318;28;20158;-76
2022/01/19 01:08:52;;;;;;;38.13;35.55;;;10.40;99.90;;;;;;5026349;28;20026;-76
2022/01/19 01:11:28;;;;;;;35.53;32.83;;;10.40;99.90;;;;;;5009790;28;20435;-76
2022/01/19 01:16:38;;;;;;;36.28;33.92;;;10.50;99.90;;;;;;5027782;28;20065;-76
2022/01/19 01:19:08;;;;;;;35.13;32.33;;;10.50;99.90;;;;;;5027568;28;20049;-76
2022/01/19 01:21:34;;;;;;;36.00;33.00;;;10.50;99.90;;;;;;5027474;28;20345;-76
2022/01/19 01:24:00;;;;;;;37.67;34.50;;;10.50;99.90;;;;;;5027681;28;20024;-76
2022/01/19 01:26:26;;;;;;;;;;;10.50;99.90;;;;;;5026668;28;20030;-76
2022/01/19 01:28:51;;;;;;;34.97;32.47;;;10.50;99.90;;;;;;5027390;28;20355;-76
2022/01/19 01:31:17;;;;;;;37.25;34.42;;;10.60;99.90;;;;;;5027342;28;20461;-76
2022/01/19 01:33:43;;;;;;;37.95;34.38;;;10.60;99.90;;;;;;5027351;28;20032;-76
2022/01/19 01:36:10;;;;;;;36.35;33.65;;;10.60;99.90;;;;;;5027285;28;20033;-76
2022/01/19 01:38:37;;;;;;;39.15;35.95;;;10.60;99.90;;;;;;5025940;28;20030;-76
2022/01/19 01:41:12;;;;;;;37.97;34.47;;;10.60;99.90;;;;;;5026108;28;20060;-76
2022/01/19 01:43:39;;;;;;;37.13;34.30;;;10.60;99.90;;;;;;5025953;28;20404;-76
2022/01/19 01:46:11;;;;;;;;;;;10.60;99.90;;;;;;5028117;28;20029;-76
2022/01/19 01:48:42;;;;;;;35.97;32.72;;;10.60;99.90;;;;;;5031439;28;19936;-76
2022/01/19 01:53:56;;;;;;;35.90;33.20;;;10.60;99.90;;;;;;5031738;28;20113;-76
2022/01/19 01:56:22;;;;;;;38.72;34.95;;;10.60;99.90;;;;;;5030175;28;20453;-76
2022/01/19 01:58:50;;;;;;;37.72;34.65;;;10.60;99.90;;;;;;5030113;28;20049;-76
2022/01/19 02:01:17;;;;;;;37.85;34.47;;;10.60;99.90;;;;;;5031223;28;20032;-77
2022/01/19 02:03:44;;;;;;;37.78;34.35;;;10.70;99.90;;;;;;5031109;28;20029;-76
2022/01/19 02:23:04;;;;;;;36.85;33.13;;;10.60;99.90;;;;;;5031106;28;20079;-76
2022/01/19 02:25:36;;;;;;;35.03;32.50;;;10.60;99.90;;;;;;5029275;28;20029;-76
2022/01/19 02:41:41;;;;;;;35.33;32.65;;;10.60;99.90;;;;;;5030502;28;20075;-77
2022/01/19 02:44:10;;;;;;;38.33;35.30;;;10.60;99.90;;;;;;5012494;28;20063;-76
2022/01/19 02:49:21;;;;;;;38.38;34.90;;;10.60;99.90;;;;;;5029152;28;20048;-76
2022/01/19 02:51:52;;;;;;;38.38;35.03;;;10.50;99.90;;;;;;5028813;28;20022;-76
2022/01/19 02:54:24;;;;;;;35.95;33.38;;;10.50;99.90;;;;;;5029919;28;20028;-76
2022/01/19 02:56:51;;;;;;;36.45;33.42;;;10.50;99.90;;;;;;5029830;28;20030;-76
2022/01/19 03:10:09;;;;;;;36.08;33.17;;;10.60;99.90;;;;;;5028740;28;20091;-77
2022/01/19 03:12:34;;;;;;;;;;;10.60;99.90;;;;;;5028945;28;20060;-76
2022/01/19 03:15:00;;;;;;;32.33;29.85;;;10.60;99.90;;;;;;5029324;28;20028;-76
2022/01/19 03:17:26;;;;;;;32.47;30.55;;;10.60;99.90;;;;;;5028108;28;20033;-76
2022/01/19 03:19:52;;;;;;;34.10;31.30;;;10.60;99.90;;;;;;5028063;28;20040;-76
2022/01/19 03:22:22;;;;;;;33.13;30.40;;;10.60;99.90;;;;;;5029429;28;20468;-76
2022/01/19 03:24:51;;;;;;;34.05;31.55;;;10.60;99.90;;;;;;5012494;28;20037;-76
2022/01/19 03:27:17;;;;;;;33.00;30.95;;;10.70;99.90;;;;;;5028316;28;20380;-76
2022/01/19 03:29:44;;;;;;;33.47;31.20;;;10.70;99.90;;;;;;5029509;28;20029;-76
2022/01/19 03:32:11;;;;;;;33.63;31.02;;;10.70;99.90;;;;;;5029393;28;20109;-76
2022/01/19 03:34:39;;;;;;;32.00;30.15;;;10.70;99.90;;;;;;5029533;28;20036;-76
2022/01/19 03:37:05;;;;;;;32.63;30.25;;;10.70;99.90;;;;;;5029288;28;20510;-76
2022/01/19 03:39:31;;;;;;;33.08;30.95;;;10.70;99.90;;;;;;5029329;28;20025;-76
2022/01/19 03:41:57;;;;;;;30.77;28.90;;;10.70;99.90;;;;;;5027944;28;20135;-76
2022/01/19 03:44:23;;;;;;;31.63;29.27;;;10.70;99.90;;;;;;5027738;28;20128;-76
2022/01/19 03:46:58;;;;;;;30.95;28.63;;;10.70;99.90;;;;;;5028876;28;20041;-76
2022/01/19 03:49:25;;;;;;;29.45;27.55;;;10.70;99.90;;;;;;5028996;28;20028;-76
2022/01/19 03:51:54;;;;;;;31.50;29.33;;;10.80;99.90;;;;;;5029119;28;20396;-76
2022/01/19 03:54:20;;;;;;;30.88;28.88;;;10.80;99.90;;;;;;5027533;28;20084;-76
2022/01/19 03:56:47;;;;;;;28.85;27.15;;;10.80;99.90;;;;;;5028998;28;20072;-76
2022/01/19 03:59:12;;;;;;;29.88;27.85;;;10.80;99.90;;;;;;5011192;28;20037;-76
2022/01/19 04:01:38;;;;;;;28.95;27.15;;;10.80;99.90;;;;;;5029314;28;20067;-76
2022/01/19 04:04:26;;;;;;;29.80;28.23;;;10.80;99.90;;;;;;5027653;28;20455;-76
2022/01/19 04:09:22;;;;;;;31.13;28.63;;;10.80;99.90;;;;;;5027178;28;20495;-76
2022/01/19 04:11:48;;;;;;;28.52;27.02;;;10.80;99.90;;;;;;5027206;28;20036;-76
2022/01/19 04:14:23;;;;;;;28.30;26.80;;;10.80;99.90;;;;;;5027116;28;20026;-77
2022/01/19 04:16:56;;;;;;;28.52;26.75;;;10.80;99.90;;;;;;5011900;28;20140;-76
2022/01/19 04:19:29;;;;;;;30.08;28.23;;;10.80;99.90;;;;;;5026941;28;20041;-76
2022/01/19 04:21:57;;;;;;;27.92;26.33;;;10.80;99.90;;;;;;5026934;28;20040;-76
2022/01/19 04:24:24;;;;;;;29.45;27.65;;;10.80;99.90;;;;;;5026879;28;20025;-76
2022/01/19 04:27:38;;;;;;;28.20;26.80;;;10.80;99.90;;;;;;5026863;28;20108;-76
2022/01/19 04:29:39;;;;;;;27.40;26.02;;;10.80;99.90;;;;;;5014081;28;20049;-76
2022/01/19 04:32:11;;;;;;;28.17;26.35;;;10.80;99.90;;;;;;5026867;28;20403;-76
2022/01/19 04:34:39;;;;;;;27.23;25.52;;;10.80;99.90;;;;;;5028174;28;20029;-76
2022/01/19 04:48:17;;;;;;;29.35;27.65;;;10.70;99.90;;;;;;5028131;28;20029;-76
2022/01/19 05:01:52;;;;;;;29.45;27.48;;;10.40;99.90;;;;;;5027132;28;20052;-76
2022/01/19 05:07:02;;;;;;;28.15;26.38;;;10.20;99.90;;;;;;5026915;28;20387;-76
2022/01/19 05:09:57;;;;;;;28.23;26.50;;;10.30;99.90;;;;;;5011941;28;20029;-76
2022/01/19 05:15:06;;;;;;;28.40;26.67;;;10.30;99.90;;;;;;5027065;28;20115;-76
2022/01/19 05:17:33;;;;;;;29.58;27.23;;;10.30;99.90;;;;;;5027916;28;20075;-76
2022/01/19 05:19:59;;;;;;;28.65;27.02;;;10.30;99.90;;;;;;5026524;28;20037;-76
2022/01/19 05:22:25;;;;;;;29.13;26.90;;;10.30;99.90;;;;;;5029387;28;20030;-76
2022/01/19 05:24:51;;;;;;;27.85;26.08;;;10.30;99.90;;;;;;5030548;28;20327;-76
2022/01/19 05:27:19;;;;;;;28.83;27.25;;;10.40;99.90;;;;;;5030480;28;20029;-76
2022/01/19 05:29:45;;;;;;;28.60;26.85;;;10.40;99.90;;;;;;5014175;28;20124;-76
2022/01/19 05:32:11;;;;;;;28.90;27.05;;;10.40;99.90;;;;;;5030354;28;20487;-76
2022/01/19 05:34:38;;;;;;;27.63;25.67;;;10.50;99.90;;;;;;5031596;28;20037;-76
2022/01/19 05:37:04;;;;;;;;;;;10.50;99.90;;;;;;5031903;28;20049;-76
2022/01/19 05:39:29;;;;;;;27.67;25.52;;;10.50;99.90;;;;;;5031322;28;19939;-76
2022/01/19 05:41:55;;;;;;;27.85;26.45;;;10.60;99.90;;;;;;5030057;28;20488;-76
2022/01/19 05:44:21;;;;;;;27.67;25.65;;;10.60;99.90;;;;;;5013505;28;20585;-76
2022/01/19 05:46:47;;;;;;;26.02;24.73;;;10.60;99.90;;;;;;5013315;28;20124;-76
2022/01/19 05:49:12;;;;;;;28.60;26.50;;;10.60;99.90;;;;;;5031237;28;20033;-76
2022/01/19 05:51:38;;;;;;;28.85;27.02;;;10.70;99.90;;;;;;5029998;28;20033;-76
2022/01/19 05:54:04;;;;;;;29.20;27.40;;;10.70;99.90;;;;;;5029981;28;20033;-76
2022/01/19 05:56:30;;;;;;;30.23;28.30;;;10.70;99.90;;;;;;5030992;28;20033;-76
2022/01/19 05:58:55;;;;;;;30.05;28.13;;;10.70;99.90;;;;;;5029722;28;20470;-76
2022/01/19 06:01:21;;;;;;;31.20;29.60;;;10.70;99.90;;;;;;5013246;28;20099;-76
2022/01/19 06:03:47;;;;;;;31.92;30.00;;;10.70;99.90;;;;;;5029917;28;20064;-76
2022/01/19 06:06:13;;;;;;;34.03;31.88;;;10.70;99.90;;;;;;5013311;28;20176;-76
2022/01/19 06:08:45;;;;;;;34.80;32.53;;;10.70;99.90;;;;;;5029512;28;20037;-76
2022/01/19 06:11:11;;;;;;;35.38;33.13;;;10.70;99.90;;;;;;5013885;28;20115;-76
2022/01/19 06:13:37;;;;;;;;;;;10.70;99.90;;;;;;5031233;28;20018;-76
2022/01/19 06:16:03;;;;;;;35.97;33.60;;;10.70;99.90;;;;;;5029524;28;19932;-76
2022/01/19 06:18:29;;;;;;;39.28;36.33;;;10.60;99.90;;;;;;5030556;28;20033;-76
2022/01/19 06:20:55;;;;;;;41.03;38.08;;;10.60;99.90;;;;;;5029198;28;20037;-76
2022/01/19 06:23:21;;;;;;;39.92;37.67;;;10.60;99.90;;;;;;5030533;28;20033;-76
2022/01/19 06:25:47;;;;;;;40.58;37.97;;;10.50;99.90;;;;;;5029321;28;20104;-77
2022/01/19 06:28:12;;;;;;;38.85;37.00;;;10.50;99.90;;;;;;5012383;28;20386;-76
2022/01/19 06:30:38;;;;;;;34.03;31.77;;;10.40;99.90;;;;;;5028685;28;20034;-76
2022/01/19 06:33:05;;;;;;;21.52;20.52;;;10.40;99.90;;;;;;5029098;28;20029;-76
2022/01/19 06:35:32;;;;;;;16.50;15.40;;;10.30;99.90;;;;;;5012876;28;20495;-76
2022/01/19 06:37:57;;;;;;;19.27;18.25;;;10.20;99.90;;;;;;5029347;28;20129;-77
2022/01/19 06:40:26;;;;;;;20.85;19.15;;;10.20;99.90;;;;;;5013004;28;20120;-77
2022/01/19 06:42:53;;;;;;;20.20;18.98;;;10.10;99.90;;;;;;5029259;28;20038;-77
2022/01/19 06:45:19;;;;;;;18.02;16.83;;;10.00;99.90;;;;;;5029129;28;20091;-77
2022/01/19 06:47:45;;;;;;;18.40;17.00;;;10.00;99.90;;;;;;5029111;28;20029;-76
2022/01/19 06:50:12;;;;;;;19.40;18.05;;;10.00;99.90;;;;;;5012215;28;20054;-71
2022/01/19 06:52:39;;;;;;;18.55;17.55;;;10.00;99.90;;;;;;5029934;28;20024;-77
2022/01/19 06:55:06;;;;;;;20.75;18.42;;;10.00;99.90;;;;;;5029830;28;20033;-77
2022/01/19 06:57:32;;;;;;;20.92;19.38;;;9.90;99.90;;;;;;5012160;28;20054;-76
2022/01/19 06:59:58;;;;;;;20.33;19.10;;;9.80;99.90;;;;;;5029752;28;20029;-76
2022/01/19 07:02:24;;;;;;;17.77;16.33;;;9.70;99.90;;;;;;5029621;28;20041;-76
2022/01/19 07:04:50;;;;;;;18.10;16.85;;;9.60;99.90;;;;;;5028503;28;20022;-76
2022/01/19 07:07:17;;;;;;;19.85;18.23;;;9.50;99.90;;;;;;5028360;28;20494;-76
2022/01/19 07:09:44;;;;;;;18.65;17.33;;;9.40;99.90;;;;;;5029654;28;20544;-77
2022/01/19 07:12:10;;;;;;;18.00;16.83;;;9.30;99.90;;;;;;5028234;28;20116;-76
2022/01/19 07:14:36;;;;;;;18.48;17.45;;;9.20;99.90;;;;;;5029659;28;20093;-76
2022/01/19 07:17:02;;;;;;;20.20;18.50;;;9.10;99.90;;;;;;5028480;28;20022;-77
2022/01/19 07:19:28;;;;;;;20.83;19.58;;;9.10;99.90;;;;;;5028259;28;20121;-76
2022/01/19 07:21:54;;;;;;;20.35;18.90;;;9.00;99.90;;;;;;5011877;28;20041;-76
2022/01/19 07:24:20;;;;;;;21.15;19.50;;;8.90;99.90;;;;;;5028108;28;20025;-76
2022/01/19 07:26:46;;;;;;;20.77;19.40;;;8.80;99.90;;;;;;5029141;28;20033;-77
2022/01/19 07:29:13;;;;;;;22.33;20.73;;;8.80;99.90;;;;;;5011206;28;20183;-76
2022/01/19 07:31:39;;;;;;;23.48;21.95;;;8.70;99.90;;;;;;5029942;28;20526;-76
2022/01/19 07:34:05;;;;;;;23.33;21.73;;;8.60;99.90;;;;;;5028696;28;20399;-76
2022/01/19 07:36:31;;;;;;;24.08;22.67;;;8.60;99.90;;;;;;5028880;28;20033;-77
2022/01/19 07:38:57;;;;;;;25.27;23.42;;;8.60;99.90;;;;;;5028611;28;20030;-77
2022/01/19 07:41:23;;;;;;;27.48;25.13;;;8.40;99.90;;;;;;5028860;28;20033;-76
2022/01/19 07:43:49;;;;;;;26.48;24.58;;;8.40;99.90;;;;;;5026786;28;20054;-77
2022/01/19 07:46:16;;;;;;;27.15;25.05;;;8.40;99.90;;;;;;5027474;28;20087;-76
2022/01/19 07:48:42;;;;;;;27.60;25.55;;;8.30;99.90;;;;;;5027093;28;20021;-76
2022/01/19 07:51:08;;;;;;;26.52;25.05;;;8.20;99.90;;;;;;5010741;28;20033;-76
2022/01/19 07:53:34;;;;;;;27.05;25.50;;;8.20;99.90;;;;;;5028633;28;20116;-75
2022/01/19 07:56:00;;;;;;;26.90;25.35;;;8.20;99.90;;;;;;5026636;28;20392;-76
2022/01/19 07:58:26;;;;;;;24.30;22.95;;;8.10;99.90;;;;;;5028833;28;20030;-76
2022/01/19 08:00:51;;;;;;;21.55;19.98;;;8.10;99.90;;;;;;5026672;28;20513;-77
2022/01/19 08:03:17;;;;;;;21.17;19.73;;;8.20;99.90;;;;;;5010259;28;20118;-76
2022/01/19 08:05:44;;;;;;;20.30;19.15;;;8.30;99.90;;;;;;5026822;28;20104;-76
2022/01/19 08:08:10;;;;;;;21.77;20.25;;;8.40;99.90;;;;;;5027861;28;20033;-76
2022/01/19 08:10:37;;;;;;;20.85;19.65;;;8.40;99.90;;;;;;5029265;28;20066;-76
2022/01/19 08:13:04;;;;;;;22.08;20.65;;;8.30;99.90;;;;;;5028584;28;20025;-77
2022/01/19 08:15:31;;;;;;;22.60;20.85;;;8.30;99.90;;;;;;5026819;28;20109;-76
2022/01/19 08:17:57;;;;;;;22.73;21.15;;;8.20;99.90;;;;;;5026430;28;20028;-76
2022/01/19 08:20:22;;;;;;;23.42;21.48;;;8.10;99.90;;;;;;5028457;28;20029;-76
2022/01/19 08:22:48;;;;;;;22.27;20.90;;;8.00;99.90;;;;;;5027109;28;20083;-76
2022/01/19 08:25:14;;;;;;;21.33;19.65;;;8.00;99.90;;;;;;5028693;28;20034;-76
2022/01/19 08:27:40;;;;;;;22.63;20.40;;;7.90;99.90;;;;;;5026218;28;20116;-78
2022/01/19 08:30:08;;;;;;;21.17;19.65;;;7.80;99.90;;;;;;5009631;28;20506;-75
2022/01/19 08:32:35;;;;;;;21.95;19.98;;;7.80;99.90;;;;;;5026110;28;20045;-76
2022/01/19 08:35:02;;;;;;;19.20;17.83;;;7.90;99.90;;;;;;5026307;28;20033;-76
2022/01/19 08:37:28;;;;;;;19.00;17.48;;;7.90;99.90;;;;;;5027300;28;20361;-76
2022/01/19 08:39:54;;;;;;;19.98;18.35;;;8.00;99.90;;;;;;5027655;28;20026;-76
2022/01/19 08:42:20;;;;;;;19.75;17.58;;;8.10;99.90;;;;;;5026234;28;20034;-76
2022/01/19 08:44:46;;;;;;;17.38;16.08;;;8.10;99.90;;;;;;5026676;28;20036;-77
2022/01/19 08:47:12;;;;;;;14.25;12.52;;;8.10;99.90;;;;;;5026162;28;20395;-76
2022/01/19 08:49:38;;;;;;;12.88;11.75;;;8.20;99.90;;;;;;5026275;28;20029;-76
2022/01/19 08:52:04;;;;;;;14.30;13.15;;;8.20;99.90;;;;;;5026407;28;20495;-76
2022/01/19 08:54:30;;;;;;;14.82;13.52;;;8.20;99.90;;;;;;5025793;28;20041;-76
2022/01/19 08:56:57;;;;;;;16.58;14.93;;;8.20;99.90;;;;;;5026970;28;20032;-76
2022/01/19 08:59:23;;;;;;;14.93;13.40;;;8.20;99.90;;;;;;5026896;28;20034;-76
2022/01/19 09:01:49;;;;;;;16.60;15.15;;;8.30;99.90;;;;;;5025317;28;20033;-76
2022/01/19 09:04:14;;;;;;;16.05;14.57;;;8.40;99.90;;;;;;5009276;28;20025;-76
2022/01/19 09:06:40;;;;;;;15.43;14.02;;;8.50;99.90;;;;;;5026975;28;20033;-76
2022/01/19 09:09:06;;;;;;;17.77;13.15;;;8.60;99.90;;;;;;5010945;28;20041;-74
2022/01/19 09:11:32;;;;;;;11.27;10.43;;;8.80;99.90;;;;;;5026522;28;20036;-76
2022/01/19 09:13:58;;;;;;;13.32;10.30;;;8.80;99.90;;;;;;5026392;28;20025;-76
2022/01/19 09:16:24;;;;;;;13.85;9.68;;;8.90;99.90;;;;;;5027623;28;20104;-77
2022/01/19 09:18:49;;;;;;;14.85;8.55;;;9.00;99.90;;;;;;5027878;28;20057;-76
2022/01/19 09:21:15;;;;;;;9.60;7.25;;;9.10;99.90;;;;;;5027441;28;20034;-77
2022/01/19 09:23:41;;;;;;;11.48;6.95;;;9.20;99.90;;;;;;5028088;28;20388;-79
2022/01/19 09:26:07;;;;;;;15.55;4.25;;;9.30;99.90;;;;;;5009758;28;20021;-79
2022/01/19 09:28:32;;;;;;;9.13;5.10;;;9.40;99.90;;;;;;5026030;28;20153;-77
2022/01/19 09:31:01;;;;;;;17.33;3.28;;;9.40;99.90;;;;;;5007212;28;20433;-78
2022/01/19 09:33:30;;;;;;;11.27;3.70;;;9.40;99.90;;;;;;5028023;28;20034;-79
2022/01/19 09:38:31;;;;;;;13.02;2.85;;;9.40;99.90;;;;;;5028455;28;20105;-77
2022/01/19 09:40:58;;;;;;;6.93;2.47;;;9.30;99.90;;;;;;5025720;28;20064;-77
2022/01/19 09:43:25;;;;;;;7.70;2.35;;;9.20;99.90;;;;;;5027155;28;20041;-77
2022/01/19 09:46:01;;;;;;;8.77;1.80;;;9.20;99.90;;;;;;5028000;28;20033;-77
2022/01/19 09:48:27;;;;;;;9.18;1.70;;;9.40;99.90;;;;;;5026527;28;20038;-77
2022/01/19 09:50:56;;;;;;;12.20;2.42;;;9.90;99.90;;;;;;5027764;28;20025;-78
2022/01/19 09:53:22;;;;;;;16.55;2.53;;;10.40;99.90;;;;;;5028145;28;20068;-78
2022/01/19 09:55:49;;;;;;;;;;;10.90;99.90;;;;;;5027163;28;20022;-77
2022/01/19 09:58:17;;;;;;;8.98;1.75;;;11.40;99.90;;;;;;5027585;28;19905;-78
2022/01/19 10:00:44;;;;;;;11.15;2.22;;;12.00;99.90;;;;;;5027575;28;20047;-77
2022/01/19 10:03:13;;;;;;;;;;;12.70;99.90;;;;;;5026840;28;20037;-78
2022/01/19 10:05:54;;;;;;;18.30;4.07;;;13.60;99.90;;;;;;5025717;28;19937;-78
2022/01/19 10:08:32;;;;;;;10.02;2.33;;;13.90;98.90;;;;;;5031061;28;20025;-78
2022/01/19 10:16:58;;;;;;;15.35;2.67;;;14.10;98.70;;;;;;5031732;28;20045;-77
2022/01/19 10:17:02;;;;;;;10.10;2.78;;;13.70;96.40;;;;;;5029524;28;20431;-79
2022/01/19 10:19:30;;;;;;;9.57;1.60;;;13.30;96.20;;;;;;5031573;28;20025;-79
2022/01/19 10:22:17;;;;;;;7.22;2.10;;;13.10;96.10;;;;;;5031874;28;20093;-79
2022/01/19 10:25:02;;;;;;;14.13;2.20;;;13.10;96.00;;;;;;5017878;28;20100;-79
2022/01/19 10:27:45;;;;;;;11.43;2.50;;;12.80;95.60;;;;;;5015037;28;20394;-79
2022/01/19 10:30:14;;;;;;;13.50;3.58;;;12.60;95.60;;;;;;5031937;28;20104;-78
2022/01/19 10:32:41;;;;;;;9.77;4.15;;;12.40;95.60;;;;;;5031799;28;20017;-78
2022/01/19 10:35:22;;;;;;;31.15;10.15;;;12.70;96.50;;;;;;5030767;28;20028;-78
2022/01/19 10:38:08;;;;;;;11.10;2.63;;;13.50;97.00;;;;;;5030501;28;20088;-78
2022/01/19 10:40:36;;;;;;;10.10;3.15;;;14.30;97.00;;;;;;5031117;28;20125;-79
2022/01/19 10:43:32;;;;;;;8.52;2.35;;;15.20;96.40;;;;;;5013376;28;20053;-78
2022/01/19 10:46:26;;;;;;;10.45;3.35;;;16.00;95.40;;;;;;5028950;28;20028;-79
2022/01/19 10:49:02;;;;;;;13.25;2.85;;;16.70;94.60;;;;;;5029181;28;20038;-78
2022/01/19 10:51:45;;;;;;;7.15;2.45;;;17.20;94.00;;;;;;5029530;28;20021;-77
2022/01/19 10:54:12;;;;;;;8.68;2.50;;;17.60;93.40;;;;;;5029540;28;20079;-80
2022/01/19 10:56:39;;;;;;;13.05;3.35;;;18.10;92.80;;;;;;5029374;28;20464;-77
2022/01/19 10:59:13;;;;;;;9.50;1.90;;;18.40;91.90;;;;;;5030850;28;20021;-78
2022/01/19 11:01:38;;;;;;;12.80;2.88;;;18.60;91.00;;;;;;5029360;28;20459;-78
2022/01/19 11:04:17;;;;;;;;;;;19.00;90.40;;;;;;5029549;28;20045;-77
2022/01/19 11:06:43;;;;;;;8.02;1.50;;;19.00;89.20;;;;;;5030535;28;19908;-77
2022/01/19 11:09:14;;;;;;;;;;;19.00;88.70;;;;;;5029959;28;20387;-78
2022/01/19 11:11:44;;;;;;;10.05;1.95;;;19.10;87.90;;;;;;5031403;28;19971;-79
2022/01/19 11:14:13;;;;;;;13.48;2.60;;;19.00;87.60;;;;;;5029506;28;20037;-79
2022/01/19 11:16:40;;;;;;;8.52;2.10;;;19.00;85.60;;;;;;5030891;28;20056;-76
2022/01/19 11:19:05;;;;;;;7.60;1.58;;;19.00;84.00;;;;;;5011995;28;20375;-76
2022/01/19 11:21:35;;;;;;;;;;;19.10;83.20;;;;;;5029792;28;20037;-78
2022/01/19 11:24:14;;;;;;;11.00;2.00;;;19.20;83.60;;;;;;5029113;28;19951;-77
2022/01/19 11:26:40;;;;;;;10.00;2.38;;;19.30;82.50;;;;;;5030120;28;20649;-76
2022/01/19 11:29:20;;;;;;;7.43;1.23;;;19.30;81.60;;;;;;5029699;28;20664;-73
2022/01/19 11:31:48;;;;;;;7.70;2.53;;;19.30;79.30;;;;;;5030271;28;20026;-77
2022/01/19 11:34:14;;;;;;;11.50;2.42;;;19.20;79.00;;;;;;5029366;28;20136;-76
2022/01/19 11:36:42;;;;;;;6.13;1.58;;;19.20;78.50;;;;;;5028921;28;20045;-75
2022/01/19 11:39:13;;;;;;;8.43;1.90;;;19.30;77.90;;;;;;5028955;28;20036;-74
2022/01/19 11:41:40;;;;;;;9.25;1.50;;;19.40;76.40;;;;;;5029235;28;20039;-77
2022/01/19 11:44:20;;;;;;;14.45;1.90;;;19.40;75.50;;;;;;5028833;28;20076;-76
2022/01/19 11:46:53;;;;;;;10.77;1.83;;;19.30;73.10;;;;;;5027599;28;20036;-76
2022/01/19 11:49:57;;;;;;;17.05;3.15;;;19.00;71.70;;;;;;5029290;28;20029;-75
2022/01/19 11:52:27;;;;;;;9.45;1.83;;;18.10;70.60;;;;;;5028954;28;20022;-75
2022/01/19 11:55:09;;;;;;;8.05;2.30;;;17.10;71.70;;;;;;5029057;28;20026;-75
2022/01/19 11:57:35;;;;;;;5.05;1.42;;;16.40;72.70;;;;;;5028059;28;20021;-76
2022/01/19 12:00:06;;;;;;;11.68;2.05;;;15.90;72.20;;;;;;5027904;28;20029;-76
2022/01/19 12:02:36;;;;;;;11.27;2.53;;;15.40;72.30;;;;;;5017504;28;20034;-76
2022/01/19 12:05:07;;;;;;;14.05;2.13;;;15.10;73.30;;;;;;5027733;28;20076;-76
2022/01/19 12:07:33;;;;;;;8.88;2.17;;;14.80;73.40;;;;;;5027683;28;20044;-77
2022/01/19 12:09:58;;;;;;;10.70;2.97;;;14.60;73.60;;;;;;5029425;28;20026;-75
2022/01/19 12:12:28;;;;;;;12.38;2.28;;;14.40;73.80;;;;;;5028290;28;20022;-76
2022/01/19 12:14:54;;;;;;;11.52;2.50;;;14.10;74.10;;;;;;5027705;28;20072;-75
2022/01/19 12:17:27;;;;;;;11.02;1.95;;;13.90;74.50;;;;;;5022344;28;20014;-76
2022/01/19 12:19:53;;;;;;;10.27;1.70;;;13.80;75.10;;;;;;5028170;28;20541;-75
2022/01/19 12:22:20;;;;;;;6.07;1.60;;;13.70;74.90;;;;;;5011510;28;20121;-76
2022/01/19 12:25:02;;;;;;;8.73;1.60;;;13.60;74.90;;;;;;5028622;28;20029;-75
2022/01/19 12:27:35;;;;;;;5.25;1.02;;;13.60;74.60;;;;;;5028499;28;20083;-76
2022/01/19 12:30:31;;;;;;;7.80;1.63;;;13.30;75.10;;;;;;5024394;28;20045;-76
2022/01/19 12:33:03;;;;;;;12.07;2.05;;;13.20;75.20;;;;;;5028637;28;20109;-76
2022/01/19 12:35:35;;;;;;;4.90;1.10;;;13.00;75.10;;;;;;5030007;28;20692;-75
2022/01/19 12:38:07;;;;;;;8.02;1.20;;;12.80;75.70;;;;;;5020225;28;20066;-76
2022/01/19 12:40:55;;;;;;;9.07;1.17;;;12.70;75.30;;;;;;5027913;28;20044;-76
2022/01/19 12:43:32;;;;;;;8.05;2.30;;;12.30;75.40;;;;;;5028484;28;20056;-76
2022/01/19 12:45:59;;;;;;;9.85;1.60;;;12.00;76.10;;;;;;5026816;28;20044;-75
2022/01/19 12:48:34;;;;;;;5.32;1.58;;;11.80;76.70;;;;;;5026326;28;20033;-75
2022/01/19 12:50:59;;;;;;;8.13;1.75;;;11.70;76.90;;;;;;5028073;28;20032;-74
2022/01/19 12:53:25;;;;;;;8.23;2.08;;;11.60;77.60;;;;;;5028054;28;20106;-77
2022/01/19 12:55:58;;;;;;;11.10;2.05;;;11.60;77.90;;;;;;5026389;28;20029;-74
2022/01/19 12:58:24;;;;;;;11.52;2.67;;;11.60;78.10;;;;;;5020807;28;20039;-74
2022/01/19 13:00:54;;;;;;;8.23;2.30;;;11.70;78.10;;;;;;5025261;28;20049;-74
2022/01/19 13:03:33;;;;;;;8.40;2.45;;;11.70;78.10;;;;;;5025614;28;20473;-74
2022/01/19 13:06:08;;;;;;;8.25;2.03;;;11.70;78.20;;;;;;5026825;28;20029;-75
2022/01/19 13:08:46;;;;;;;6.88;1.35;;;11.60;78.40;;;;;;5024012;28;20463;-74
2022/01/19 13:11:22;;;;;;;7.30;1.90;;;11.70;78.80;;;;;;5024098;28;20140;-75
2022/01/19 13:13:54;;;;;;;7.68;1.38;;;11.80;79.10;;;;;;5023903;28;20013;-75
2022/01/19 13:16:34;;;;;;;6.40;1.60;;;11.90;79.40;;;;;;5025729;28;20022;-75
2022/01/19 13:19:06;;;;;;;7.05;1.67;;;12.10;79.20;;;;;;5028448;28;20018;-75
2022/01/19 13:21:32;;;;;;;4.45;1.05;;;12.10;79.40;;;;;;5028241;28;20061;-75
2022/01/19 13:23:59;;;;;;;6.50;1.13;;;12.20;79.00;;;;;;5028018;28;20025;-75
2022/01/19 13:26:42;;;;;;;11.27;1.67;;;12.20;79.00;;;;;;5027595;28;20063;-74
2022/01/19 13:29:18;;;;;;;7.60;1.52;;;12.20;79.00;;;;;;5023011;28;20033;-73
2022/01/19 13:32:03;;;;;;;6.65;1.50;;;12.30;79.30;;;;;;5024240;28;20420;-74
2022/01/19 13:34:32;;;;;;;10.25;1.55;;;12.20;79.00;;;;;;5025707;28;20043;-74
2022/01/19 13:37:03;;;;;;;8.55;1.17;;;12.20;79.00;;;;;;5026761;28;20025;-74
2022/01/19 13:39:33;;;;;;;9.80;2.10;;;12.20;79.20;;;;;;5025922;28;20022;-74
2022/01/19 13:42:00;;;;;;;7.13;1.77;;;12.10;78.90;;;;;;5028070;28;20044;-74
2022/01/19 13:44:33;;;;;;;7.30;1.75;;;11.90;79.20;;;;;;5030396;28;20038;-75
2022/01/19 13:47:10;;;;;;;14.15;3.45;;;11.80;79.50;;;;;;5031305;28;20420;-74
2022/01/19 13:49:37;;;;;;;;;;;11.70;79.70;;;;;;5030206;28;20798;-74
2022/01/19 13:52:04;;;;;;;5.70;1.70;;;11.80;80.20;;;;;;5031036;28;19952;-73
2022/01/19 13:54:30;;;;;;;11.23;2.17;;;11.80;80.20;;;;;;5029862;28;20475;-74
2022/01/19 13:56:59;;;;;;;6.75;1.85;;;11.90;80.30;;;;;;5031313;28;20033;-74
2022/01/19 13:59:25;;;;;;;6.20;1.90;;;11.90;80.50;;;;;;5031398;28;20762;-74
2022/01/19 14:01:57;;;;;;;;;;;12.00;80.20;;;;;;5031768;28;20506;-74
2022/01/19 14:04:24;;;;;;;12.55;2.75;;;11.90;80.10;;;;;;5029747;28;19913;-76
2022/01/19 14:06:50;;;;;;;9.07;1.80;;;11.90;80.10;;;;;;5013409;28;20168;-77
2022/01/19 14:09:17;;;;;;;11.60;1.98;;;11.70;80.30;;;;;;5031004;28;20029;-75
2022/01/19 14:11:44;;;;;;;3.90;1.33;;;11.60;80.70;;;;;;5030183;28;20059;-75